Saint-Basile, Canada
Current Conditions -  °F | °C
As of 3:00 PM on Sunday 25 Jan 2015 (Local Time) from CYOY Reporting Station
Few Clouds Few Clouds  
Wind Chill: -5°   Ceiling: Unl
Heat Index:   Visibility: 9mi
Dew Point: -6°   Wind: 9mph
Humidity: 52%   Direction: 280°W
Pressure: 29.66"   Gusts: 17mph
Location:  46.75°N, 71.82°W
Report Text: CYOY 252000Z AUTO 28008G15KT 240V320 9SM FEW035 FEW039 FEW093M13/M21 A2966 RMK SLP055
Loading
Personal Weather Stations






























Interactive Weather Map New forecast layout! Learn more

10-Day Weather Forecast

Advertisements
Track Severe Weather on mobile